M I D A S
Marine Information and Data Acquisition System
Tripno 812 of the Zeeleeuw from 2004-11-24 07:45:28 to 2004-11-24 14:29:23
Back to CruiseResearch ActivitiesStationsMapUnderway DataData graphs

EquipmentUnitsComment
TimeDGPSUTC
LatitudeDGPSDM.mWGS84
LongitudeDGPSDM.mWGS84
HeadingGyrodeg 
SOGDGPSknotsSpeed over ground
COGDGPSdegCourse over ground
DepthEcho soundermeters200 kHz
Missing or incorrect values are displayed as -999
Navigation data collected by the RV Zeeleeuw from 2004-11-24 07:38:26 to 2004-11-24 14:40:34
Time Latitude Longitude Heading SOG COG Depth
2004-11-24 07:39:33 51°13.63 2°55.999 108.3 2.2 287 -999
2004-11-24 07:40:45 51°13.642 2°55.947 121.7 3 297 -999
2004-11-24 07:41:44 51°13.675 2°55.856 122.6 4.2 300 -999
2004-11-24 07:42:44 51°13.699 2°55.758 107.1 2.8 285 14.9
2004-11-24 07:43:58 51°13.7 2°55.748 54.9 0.1 284 -999
2004-11-24 07:45:08 51°13.719 2°55.755 352.9 1 348 13.4
2004-11-24 07:46:08 51°13.779 2°55.682 325.7 7 324 10.9
2004-11-24 07:47:08 51°13.904 2°55.576 340.8 9.1 336 11
2004-11-24 07:48:12 51°14.058 2°55.47 340.5 9.7 335 10.5
2004-11-24 07:49:15 51°14.217 2°55.332 330.4 10.7 325 10.9
2004-11-24 07:50:14 51°14.338 2°55.117 308.8 11.8 304 10.9
2004-11-24 07:51:42 51°14.477 2°54.66 304.3 13.7 299 11
2004-11-24 07:52:50 51°14.645 2°54.354 330.2 13.6 323 10.6
2004-11-24 07:54:00 51°14.868 2°54.136 340.9 13.4 333 9.6
2004-11-24 07:55:02 51°15.073 2°53.969 340.4 13.5 333 9.6
2004-11-24 07:56:17 51°15.327 2°53.759 339.6 13.8 332 10.2
2004-11-24 07:57:24 51°15.555 2°53.568 340 13.9 332 11.2
2004-11-24 07:58:44 51°15.826 2°53.34 339.2 -999 -999 12
2004-11-24 07:59:56 51°16.068 2°53.134 342.1 13.7 335 12.6
2004-11-24 08:00:56 51°16.273 2°52.977 341.6 13.7 334 13
2004-11-24 08:02:01 51°16.494 2°52.807 340.7 13.5 333 12.5
2004-11-24 08:03:01 51°16.696 2°52.652 341.8 13.5 335 11.1
2004-11-24 08:04:19 51°16.956 2°52.451 340.7 13.4 333 10
2004-11-24 08:05:36 51°17.215 2°52.26 344.8 13.4 338 10.8
2004-11-24 08:07:04 51°17.527 2°52.12 0.3 13.3 353 11
2004-11-24 08:08:06 51°17.751 2°52.126 13.4 13 7 11
2004-11-24 08:09:18 51°18.013 2°52.173 12.4 13.3 7 11.1
2004-11-24 08:10:26 51°18.257 2°52.257 20.9 13.2 15 11.7
2004-11-24 08:11:26 51°18.462 2°52.379 27.5 13.2 22 12
2004-11-24 08:13:04 51°18.693 2°52.785 72.2 13.2 71 12.2
2004-11-24 08:14:11 51°18.775 2°53.153 71.9 13.2 69 12.4
2004-11-24 08:16:16 51°18.943 2°53.835 71.4 13.1 69 12.5
2004-11-24 08:17:16 51°19.022 2°54.165 72.3 13.3 69 12.4
2004-11-24 08:18:16 51°19.099 2°54.499 71.5 13.3 68 12.5
2004-11-24 08:19:16 51°19.176 2°54.832 72 13.4 70 12.4
2004-11-24 08:20:16 51°19.256 2°55.163 71 13.3 69 12.4
2004-11-24 08:21:44 51°19.377 2°55.646 71.1 13.4 68 12.2
2004-11-24 08:23:33 51°19.526 2°56.253 71.1 13.6 67 12
2004-11-24 08:25:10 51°19.659 2°56.798 71.3 13.7 69 11.9
2004-11-24 08:26:16 51°19.75 2°57.168 70.7 13.5 68 11.8
2004-11-24 08:27:24 51°19.841 2°57.547 71.7 13.6 69 11.6
2004-11-24 08:28:32 51°19.932 2°57.927 71.5 13.5 70 11.7
2004-11-24 08:30:10 51°20.065 2°58.473 70.8 13.4 68 11.5
2004-11-24 08:31:16 51°20.153 2°58.841 71.8 13.5 70 11.4
2004-11-24 08:32:22 51°20.243 2°59.207 71.3 13.5 70 11.3
2004-11-24 08:33:49 51°20.36 2°59.7 71 13.7 70 11.3
2004-11-24 08:34:48 51°20.443 3°0.037 70.7 13.9 69 11.3
2004-11-24 08:35:56 51°20.535 3°0.428 71.6 13.9 70 11.1
2004-11-24 08:37:05 51°20.631 3°0.823 71 13.9 69 11.2
2004-11-24 08:38:05 51°20.712 3°1.17 71.5 14 70 11
2004-11-24 08:39:02 51°20.792 3°1.499 71.3 14 69 11.1
2004-11-24 08:40:28 51°20.913 3°1.998 71 14 69 11.2
2004-11-24 08:41:28 51°20.996 3°2.349 71.7 14.2 68 11.3
2004-11-24 08:42:52 51°21.116 3°2.839 71.5 14.1 68 11.5
2004-11-24 08:43:52 51°21.202 3°3.191 71.6 14.2 69 11.4
2004-11-24 08:45:04 51°21.303 3°3.613 71.2 14.2 67 11.7
2004-11-24 08:46:02 51°21.387 3°3.951 70.6 14.1 68 11.8
2004-11-24 08:47:06 51°21.477 3°4.324 71.8 14.1 68 11.9
2004-11-24 08:48:08 51°21.565 3°4.687 71.9 14.1 69 12
2004-11-24 08:49:08 51°21.651 3°5.039 71.8 14.2 68 12.1
2004-11-24 08:50:20 51°21.736 3°5.472 75.8 14.2 72 12.1
2004-11-24 08:52:16 51°21.869 3°6.177 77.2 14.4 75 12.3
2004-11-24 08:53:14 51°21.943 3°6.525 66.1 14.3 63 12.6
2004-11-24 08:54:16 51°22.062 3°6.871 65.8 14.4 64 12.9
2004-11-24 08:55:24 51°22.137 3°7.287 82.2 14.5 81 13.2
2004-11-24 08:56:32 51°22.184 3°7.718 83.5 14.5 80 13.1
2004-11-24 08:57:32 51°22.228 3°8.099 82.4 14.6 81 13.3
2004-11-24 08:58:36 51°22.254 3°8.508 95.3 14.5 90 13.6
2004-11-24 08:59:46 51°22.254 3°8.96 91.4 14.6 88 13.6
2004-11-24 09:00:59 51°22.263 3°9.432 92 14.7 87 14
2004-11-24 09:01:59 51°22.246 3°9.82 98.2 14.7 91 14.6
2004-11-24 09:02:59 51°22.194 3°10.2 110.3 14.7 106 15.4
2004-11-24 09:04:22 51°22.144 3°10.743 93 15.2 87 18.7
2004-11-24 09:05:34 51°22.218 3°11.214 75.4 15.3 72 17.8
2004-11-24 09:06:34 51°22.297 3°11.604 76.4 15.4 74 17.1
2004-11-24 09:07:48 51°22.389 3°12.089 75.4 15.4 73 16.6
2004-11-24 09:08:48 51°22.463 3°12.483 75.6 15.3 73 15.3
2004-11-24 09:10:13 51°22.563 3°13.046 76.9 15.5 74 13.9
2004-11-24 09:11:28 51°22.647 3°13.545 77.6 15.4 75 12.5
2004-11-24 09:12:26 51°22.712 3°13.931 75.6 15.5 71 11.5
2004-11-24 09:13:48 51°22.817 3°14.469 74 15.4 72 10.7
2004-11-24 09:14:56 51°22.926 3°14.901 66.7 15.5 64 10.1
2004-11-24 09:16:02 51°23.12 3°15.182 21.8 14.3 21 9.8
2004-11-24 09:17:02 51°23.349 3°15.275 8.4 14.1 11 9.7
2004-11-24 09:18:02 51°23.583 3°15.356 11.1 14.7 13 11.3
2004-11-24 09:19:11 51°23.857 3°15.451 8.8 14.5 9 13.3
2004-11-24 09:20:12 51°24.1 3°15.501 5.5 14.4 8 13.5
2004-11-24 09:21:12 51°24.332 3°15.519 350.2 13.6 352 16.6
2004-11-24 09:22:24 51°24.582 3°15.379 324.8 13 329 19.3
2004-11-24 09:23:42 51°24.761 3°15.073 287.2 11.7 287 19.6
2004-11-24 09:25:00 51°24.722 3°14.676 261.6 11.8 259 19.5
2004-11-24 09:26:00 51°24.694 3°14.366 265.2 11.8 264 20.2
2004-11-24 09:27:04 51°24.67 3°14.033 265.2 11.8 264 19.8
2004-11-24 09:28:18 51°24.643 3°13.648 265.6 11.9 263 19.1
2004-11-24 09:29:17 51°24.616 3°13.339 265.6 12 262 19
2004-11-24 09:30:42 51°24.579 3°12.89 266.7 12 263 18.3
2004-11-24 09:31:41 51°24.554 3°12.58 266 11.9 263 18
2004-11-24 09:33:06 51°24.522 3°12.136 266.3 11.8 263 18.2
2004-11-24 09:34:05 51°24.499 3°11.828 265.9 11.9 263 18.4
2004-11-24 09:35:09 51°24.476 3°11.493 266.2 11.9 263 18.4
2004-11-24 09:36:21 51°24.448 3°11.119 266 11.8 265 18.2
2004-11-24 09:37:26 51°24.425 3°10.779 266.9 11.9 263 17.9
2004-11-24 09:38:32 51°24.397 3°10.431 266.5 12.1 263 17.8
2004-11-24 09:39:51 51°24.364 3°10.011 266.3 12.1 262 17.3
2004-11-24 09:40:51 51°24.337 3°9.693 266.4 12.1 262 17.1
2004-11-24 09:41:53 51°24.307 3°9.362 266 12.2 261 17.6
2004-11-24 09:43:01 51°24.282 3°8.997 267.8 12.2 263 17.8
2004-11-24 09:44:01 51°24.257 3°8.673 270 12.2 265 18
2004-11-24 09:45:16 51°24.23 3°8.269 268.5 12.2 263 18.2
2004-11-24 09:46:20 51°24.205 3°7.926 267.6 12.2 264 19
2004-11-24 09:47:40 51°24.183 3°7.496 270.6 12.2 265 19.2
2004-11-24 09:49:20 51°24.159 3°6.959 270.8 12.2 266 19.4
2004-11-24 09:50:32 51°24.147 3°6.573 271.9 12 269 19.4
2004-11-24 09:51:41 51°24.14 3°6.207 271.8 12 268 19.7
2004-11-24 09:52:52 51°24.16 3°5.837 291 12 291 19.8
2004-11-24 09:53:58 51°24.263 3°5.521 296.9 12.2 297 18.7
2004-11-24 09:55:02 51°24.361 3°5.211 297.2 12.3 297 18.1
2004-11-24 09:56:08 51°24.468 3°4.892 299.7 12.5 300 17.3
2004-11-24 09:57:08 51°24.574 3°4.605 299.4 12.4 299 16.9
2004-11-24 09:58:29 51°24.686 3°4.195 294.3 12.4 295 17.2
2004-11-24 09:59:44 51°24.797 3°3.821 294.7 12.6 295 17
2004-11-24 10:00:54 51°24.898 3°3.465 292.9 12.5 293 17
2004-11-24 10:01:54 51°24.981 3°3.156 292.2 12.8 293 17
2004-11-24 10:02:54 51°25.045 3°2.835 289.7 12.9 295 16.7
2004-11-24 10:04:10 51°25.185 3°2.461 300.2 12.9 300 16.6
2004-11-24 10:05:18 51°25.308 3°2.122 299.4 12.9 299 15.5
2004-11-24 10:06:27 51°25.427 3°1.776 300 12.9 299 14.7
2004-11-24 10:07:28 51°25.534 3°1.471 300 12.9 299 14.9
2004-11-24 10:08:27 51°25.638 3°1.174 299.1 13 299 15.1
2004-11-24 10:09:32 51°25.753 3°0.848 300.1 13 300 15.6
2004-11-24 10:10:44 51°25.92 3°0.528 317.3 13.5 320 17.2
2004-11-24 10:11:52 51°26.149 3°0.331 333.6 14 335 20.7
2004-11-24 10:12:54 51°26.393 3°0.266   14.5 355 25.8
2004-11-24 10:14:12 51°26.712 3°0.306 4.3 14.8 4 27.5
2004-11-24 10:15:12 51°26.96 3°0.325 2.2 14.8 2 27.2
2004-11-24 10:16:26 51°27.266 3°0.342 2.5 14.8 2 26.3
2004-11-24 10:17:30 51°27.529 3°0.37 4.9 14.9 4 24.4
2004-11-24 10:18:42 51°27.821 3°0.403 5 14.7 4 23.9
2004-11-24 10:19:48 51°28.089 3°0.435 3.6 14.7 4 21.9
2004-11-24 10:20:48 51°28.332 3°0.463 4.1 14.4 5 23.1
2004-11-24 10:21:55 51°28.604 3°0.492 3 14.8 4 23.9
2004-11-24 10:22:57 51°28.855 3°0.527 4.7 14.7 6 27
2004-11-24 10:24:04 51°29.128 3°0.561 3.4 14.9 4 29.4
2004-11-24 10:25:08 51°29.391 3°0.595 3.1 14.9 4 30.9
2004-11-24 10:26:16 51°29.671 3°0.626 3.6 15.1 4 30.9
2004-11-24 10:27:32 51°29.987 3°0.662 3.2 15 3 30.4
2004-11-24 10:28:40 51°30.27 3°0.693 2.5 15 3 30.2
2004-11-24 10:29:38 51°30.51 3°0.719 3.7 14.9 4 30.1
2004-11-24 10:30:48 51°30.798 3°0.751 3.3 14.7 3 30
2004-11-24 10:32:16 51°31.158 3°0.793 3.4 14.8 4 30.3
2004-11-24 10:33:44 51°31.517 3°0.835 3.6 14.8 4 28.5
2004-11-24 10:35:20 51°31.912 3°0.879 4 14.9 4 28.2
2004-11-24 10:36:17 51°32.147 3°0.907 3.2 14.9 5 26.4
2004-11-24 10:37:35 51°32.467 3°0.95 3.7 14.9 4 27.7
2004-11-24 10:38:54 51°32.795 3°0.989 3.2 15 4 33.5
2004-11-24 10:39:55 51°33.048 3°1.014 2.5 15 3 36.1
2004-11-24 10:41:04 51°33.337 3°1.042 2.7 15.1 3 37.2
2004-11-24 10:42:06 51°33.594 3°1.066 3.2 14.8 2 36.3
2004-11-24 10:43:22 51°33.902 3°1.093 3.1 14.7 3 20.6
2004-11-24 10:44:22 51°34.141 3°1.079 344.1 13.9 344 17.1
2004-11-24 10:45:27 51°34.347 3°0.867 311.5 13.5 314 17
2004-11-24 10:46:51 51°34.388 3°0.416 258.2 12.3 258 18.2
2004-11-24 10:47:54 51°34.312 3°0.09 245.7 12.4 244 21.3
2004-11-24 10:49:00 51°34.218 2°59.758 246.6 12.3 245 21.3
2004-11-24 10:50:16 51°34.089 2°59.394 236 12.6 235 24.4
2004-11-24 10:51:20 51°33.961 2°59.108 237.3 12.3 235 24.2
2004-11-24 10:52:45 51°33.794 2°58.724 237.4 12.3 236 23.6
2004-11-24 10:53:45 51°33.678 2°58.453 238.1 12.3 238 23.8
2004-11-24 10:54:46 51°33.561 2°58.177 238.5 12.5 233 23.8
2004-11-24 10:55:56 51°33.427 2°57.859 239.1 12.5 236 24.1
2004-11-24 10:57:02 51°33.254 2°57.637 222.1 12.1 217 24.5
2004-11-24 10:58:08 51°33.072 2°57.423 218.4 12.5 213 23
2004-11-24 10:59:16 51°32.878 2°57.213 220 12.4 213 24.7
2004-11-24 11:00:24 51°32.685 2°57.002 220.6 12.4 216 21.7
2004-11-24 11:01:28 51°32.504 2°56.798 220.2 12.2 214 20.8
2004-11-24 11:02:56 51°32.255 2°56.523 219.9 12.5 213 23.1
2004-11-24 11:03:56 51°32.086 2°56.335 220.6 12.4 213 21.9
2004-11-24 11:04:56 51°31.917 2°56.15 220.4 12.3 215 18.3
2004-11-24 11:05:56 51°31.748 2°55.964 219.1 12 216 20.9
2004-11-24 11:06:58 51°31.572 2°55.773 220.7 12.1 215 21.7
2004-11-24 11:07:57 51°31.408 2°55.59 221.3 12 212 20
2004-11-24 11:08:58 51°31.237 2°55.402 221.4 12.5 217 20.4
2004-11-24 11:10:09 51°31.099 2°55.101 250.2 12.3 253 19.9
2004-11-24 11:11:09 51°31.05 2°54.78 259.6 12.5 259 20.6
2004-11-24 11:12:08 51°31.006 2°54.459 259.4 12.6 257 18.1
2004-11-24 11:13:08 51°30.963 2°54.135 260 12.4 257 21.6
2004-11-24 11:14:15 51°30.919 2°53.771 260.5 12.5 258 21
2004-11-24 11:15:19 51°30.878 2°53.42 260.2 12.6 257 19.6
2004-11-24 11:16:32 51°30.83 2°53.021 260.2 12.6 260 20.1
2004-11-24 11:17:34 51°30.786 2°52.683 259.6 12.7 257 21.7
2004-11-24 11:18:52 51°30.73 2°52.257 259.3 12.5 259 22.8
2004-11-24 11:19:54 51°30.688 2°51.914 258.9 12.8 257 22.3
2004-11-24 11:20:56 51°30.646 2°51.57 259.6 12.6 259 23.2
2004-11-24 11:22:32 51°30.537 2°51.078 231.2 12 223 22.9
2004-11-24 11:23:41 51°30.348 2°50.86 220.7 11.6 214 24.1
2004-11-24 11:24:41 51°30.175 2°50.691 213.8 12.3 208 27.5
2004-11-24 11:26:01 51°29.936 2°50.482 214.7 12.3 208 31
2004-11-24 11:27:02 51°29.76 2°50.321 216.3 12 211 30.2
2004-11-24 11:28:02 51°29.59 2°50.157 217.6 11.6 212 32.3
2004-11-24 11:29:02 51°29.421 2°49.993 216.1 11.8 208 31.2
2004-11-24 11:30:24 51°29.191 2°49.77 214.6 11.8 209 32.4
2004-11-24 11:31:56 51°28.926 2°49.541 215 11.5 209 30.2
2004-11-24 11:33:04 51°28.73 2°49.371 213.6 12 208 31.1
2004-11-24 11:34:12 51°28.535 2°49.198 213.4 11.9 207 32.3
2004-11-24 11:35:21 51°28.335 2°49.022 213.8 12 209 29.8
2004-11-24 11:36:28 51°28.141 2°48.846 215.3 12.3 211 27.1
2004-11-24 11:37:28 51°27.969 2°48.691 213.2 11.9 208 30.4
2004-11-24 11:39:05 51°27.683 2°48.445 211.8 12.1 205 30.3
2004-11-24 11:40:15 51°27.474 2°48.268 212.8 12.1 206 29.3
2004-11-24 11:41:16 51°27.293 2°48.114 210.8 12 209 29
2004-11-24 11:42:26 51°27.084 2°47.932 212.1 12.6 207 29.4
2004-11-24 11:43:48 51°26.835 2°47.727 209.1 12.8 205 28.7
2004-11-24 11:45:16 51°26.564 2°47.521 208.3 12.9 205 27
2004-11-24 11:46:30 51°26.336 2°47.346 209.7 12.3 207 27.7
2004-11-24 11:47:38 51°26.126 2°47.179 208.7 12.7 206 23.8
2004-11-24 11:48:38 51°25.941 2°47.033 208.9 12.3 206 23.2
2004-11-24 11:49:46 51°25.731 2°46.866 209.3 11.9 205 26.3
2004-11-24 11:50:48 51°25.54 2°46.715 209 12.5 205 26.6
2004-11-24 11:51:47 51°25.358 2°46.57 208.4 12.5 207 27.3
2004-11-24 11:53:02 51°25.126 2°46.383 210.3 12.4 208 27.1
2004-11-24 11:54:02 51°24.932 2°46.268 193.4 12.8 188 27
2004-11-24 11:55:02 51°24.723 2°46.23 190.1 13.1 186 27.3
2004-11-24 11:56:00 51°24.521 2°46.191 192.3 12.8 188 29
2004-11-24 11:57:25 51°24.225 2°46.13 191.4 12.9 187 28.3
2004-11-24 11:58:38 51°23.968 2°46.074 191.7 12.6 187 30.7
2004-11-24 11:59:50 51°23.715 2°46.031 187.1 12.9 183 30.3
2004-11-24 12:00:49 51°23.506 2°46.019 186.5 12.8 182 29.6
2004-11-24 12:02:16 51°23.199 2°45.997 188.6 12.4 184 26.1
2004-11-24 12:03:16 51°22.985 2°45.982 187.5 12.4 184 27.7
2004-11-24 12:04:20 51°22.757 2°45.963 186.8 12.8 183 25.8
2004-11-24 12:05:21 51°22.541 2°45.95 187.4 12.8 183 24.9
2004-11-24 12:06:20 51°22.331 2°45.934 188.8 12.8 184 23.9
2004-11-24 12:07:19 51°22.121 2°45.913 188.7 12.4 184 23
2004-11-24 12:08:28 51°21.875 2°45.905 185.7 12.8 179 24.5
2004-11-24 12:10:06 51°21.525 2°45.908 184.9 13.2 180 27.5
2004-11-24 12:11:16 51°21.277 2°45.91 185.9 12.8 180 28.2
2004-11-24 12:12:18 51°21.055 2°45.913 184.2 13 178 27.6
2004-11-24 12:13:28 51°20.805 2°45.918 185.9 13 179 27.3
2004-11-24 12:14:38 51°20.555 2°45.92 185.6 13 177 23.4
2004-11-24 12:16:49 51°20.127 2°45.9 192.9 7.6 181 15.6
2004-11-24 12:18:04 51°20.015 2°45.84 214.8 4.2 203 17.3
2004-11-24 12:19:16 51°19.957 2°45.808 227.1 2.3 217 16.9
2004-11-24 12:20:36 51°19.959 2°45.791 260.6 0.6   17.3
2004-11-24 12:21:46 51°19.969 2°45.785 244 0.4 352 17.8
2004-11-24 12:22:58 51°19.974 2°45.79 225.5 0.4 84 17.6
2004-11-24 12:24:16 51°19.977 2°45.797 229.1 0.1 27 17.5
2004-11-24 12:25:40 51°19.969 2°45.799 216.8 0.6 181 17.2
2004-11-24 12:26:42 51°19.959 2°45.795 220.5 0.6 204 17
2004-11-24 12:27:44 51°19.953 2°45.792 222.1 0.3 182 17
2004-11-24 12:28:52 51°19.95 2°45.793 226.4 0.1 149 16.9
2004-11-24 12:30:00 51°19.95 2°45.792 229.8 0.3 122 17
2004-11-24 12:31:16 51°19.952 2°45.795 225.5 0.2 16 17
2004-11-24 12:32:16 51°19.953 2°45.804 213.8 0.4 72 16.5
2004-11-24 12:33:34 51°19.954 2°45.823 199.7 0.7 85 16.1
2004-11-24 12:34:53 51°19.956 2°45.849 187.3 1 86 16.8
2004-11-24 12:35:59 51°19.957 2°45.876 178.2 1.2 82 15.5
2004-11-24 12:37:06 51°19.959 2°45.907 168.6 1.1 83 16.2
2004-11-24 12:38:04 51°19.962 2°45.938 158 1.5 80 13.4
2004-11-24 12:39:06 51°19.966 2°45.973 153.2 1.2 75 16.5
2004-11-24 12:40:32 51°19.975 2°46.015 158.1 1.1 70 15.6
2004-11-24 12:41:56 51°19.987 2°46.05 166.9 1.1 63 16.6
2004-11-24 12:42:57 51°19.997 2°46.071 175.9 1 56 16
2004-11-24 12:43:54 51°20.006 2°46.089 184.5 0.9 50 15.7
2004-11-24 12:45:00 51°20.017 2°46.11 195.3 0.9 42 14.9
2004-11-24 12:46:00 51°20.027 2°46.126 203 0.9 48 16
2004-11-24 12:47:00 51°20.039 2°46.141 213.4 0.9 28 14.6
2004-11-24 12:48:06 51°20.051 2°46.157 217 0.9 35 15.9
2004-11-24 12:49:15 51°20.064 2°46.17 221.8 0.4 14 16.7
2004-11-24 12:50:14 51°20.034 2°46.121 230 3.6 225 16.1
2004-11-24 12:51:32 51°19.96 2°45.944 233.7 6.7 232 14.2
2004-11-24 12:52:30 51°19.91 2°45.791 248.2 6.5 251 16.4
2004-11-24 12:53:45 51°19.894 2°45.718 263.4 0.5 337 13.2
2004-11-24 12:54:50 51°19.91 2°45.711 276.5 1 350 13.5
2004-11-24 12:56:14 51°19.934 2°45.705 271.4 0.7 348 13.7
2004-11-24 12:57:20 51°19.945 2°45.698 248.4 0.5 337 14.1
2004-11-24 12:58:46 51°19.95 2°45.696 226.9 0.2 329 14.1
2004-11-24 12:59:52 51°19.95 2°45.703 218 0.1 83 13.6
2004-11-24 13:00:58 51°19.949 2°45.714 206.8 0.6 104 13.2
2004-11-24 13:02:06 51°19.935 2°45.729 189.4 1 139 14.9
2004-11-24 13:03:23 51°19.814 2°45.698 212.1 7.8 205 15.4
2004-11-24 13:04:43 51°19.648 2°45.471 223.3 11.4 218 12.4
2004-11-24 13:05:50 51°19.481 2°45.253 223.5 12 219 12
2004-11-24 13:06:56 51°19.311 2°45.031 223.5 12.2 220 13
2004-11-24 13:07:56 51°19.157 2°44.826 223.4 12.1 218 14.2
2004-11-24 13:09:25 51°18.927 2°44.525 221.6 12.1 217 15
2004-11-24 13:10:28 51°18.758 2°44.325 221.7 11.8 217 15.2
2004-11-24 13:11:32 51°18.602 2°44.144 217.6 7.6 210 14.6
2004-11-24 13:12:49 51°18.558 2°44.093 260.2 0.7 302 14.2
2004-11-24 13:13:49 51°18.569 2°44.08 277.8 1.1 340 14.6
2004-11-24 13:14:55 51°18.587 2°44.07 279.5 0.8 334 15.1
2004-11-24 13:16:16 51°18.609 2°44.061 275.6 1.1 351 16
2004-11-24 13:17:16 51°18.624 2°44.057 270.4 0.9 352 16.4
2004-11-24 13:18:32 51°18.643 2°44.054 261.2 0.8 349 17.3
2004-11-24 13:19:36 51°18.655 2°44.048 240.6 0.6 341 18.1
2004-11-24 13:20:38 51°18.639 2°44.039 197 1.7 183 17.6
2004-11-24 13:21:38 51°18.519 2°43.967 208.8 10.4 204 15.2
2004-11-24 13:22:48 51°18.298 2°43.812 208.6 12.8 205 13.4
2004-11-24 13:23:58 51°18.069 2°43.634 208.6 13 206 12.7
2004-11-24 13:25:14 51°17.822 2°43.44 209.9 13.3 207 12.2
2004-11-24 13:26:21 51°17.606 2°43.261 209.8 12.8 208 10.6
2004-11-24 13:27:36 51°17.367 2°43.059 207.5 12.6 208 12.4
2004-11-24 13:28:36 51°17.243 2°42.957 204.5 6.3 206 11.5
2004-11-24 13:29:44 51°17.193 2°42.927 194.2 0.3 171 10.9
2004-11-24 13:30:46 51°17.19 2°42.919 196.7 0.4 252 10.5
2004-11-24 13:31:51 51°17.187 2°42.91 199.5 0.2 205 11.1
2004-11-24 13:32:48 51°17.187 2°42.9 201.4 0.4 264 11.2
2004-11-24 13:33:56 51°17.186 2°42.888 203.8 0.3 276 11.1
2004-11-24 13:34:56 51°17.189 2°42.878 206.4 0.6 287 10.7
2004-11-24 13:36:02 51°17.186 2°42.861 210.6 1.2 215 10.3
2004-11-24 13:37:27 51°16.98 2°42.752 191.7 12.5 188 10.6
2004-11-24 13:38:24 51°16.776 2°42.729 182.5 13.1 181 11.6
2004-11-24 13:39:43 51°16.489 2°42.715 184.8 13.3 183 11.7
2004-11-24 13:40:52 51°16.239 2°42.687 188.3 13 186 11
2004-11-24 13:42:07 51°15.99 2°42.655 186.7 9.2 184 11.7
2004-11-24 13:43:06 51°15.913 2°42.625 215 1.6 228 12.9
2004-11-24 13:44:06 51°15.914 2°42.609 257.2 0.7 308 12.8
2004-11-24 13:45:04 51°15.921 2°42.593 269.3 0.9 310 12.8
2004-11-24 13:46:06 51°15.929 2°42.571 254.8 1 299 12.9
2004-11-24 13:47:07 51°15.934 2°42.55 235.2 1 292 12.7
2004-11-24 13:48:21 51°15.935 2°42.529 214.1 0.6 264 12.9
2004-11-24 13:49:21 51°15.933 2°42.517 201.6 0.4 246 12.7
2004-11-24 13:50:24 51°15.887 2°42.544 145.9 5.3 144 12.1
2004-11-24 13:51:30 51°15.797 2°42.814 115.4 13 108 12.3
2004-11-24 13:52:30 51°15.717 2°43.149 110.8 13.6 105 12.3
2004-11-24 13:53:55 51°15.664 2°43.656 102.8 13.7 98 12.3
2004-11-24 13:55:00 51°15.626 2°44.048 103.7 13.9 100 13.3
2004-11-24 13:56:08 51°15.584 2°44.457 104.6 13.8 98 13.1
2004-11-24 13:57:09 51°15.568 2°44.827 93.6 13.8 88 14.8
2004-11-24 13:58:12 51°15.563 2°45.212 99.4 13.8 95 16.9
2004-11-24 13:59:22 51°15.539 2°45.638 99 13.8 95 18.5
2004-11-24 14:00:24 51°15.516 2°46.013 98.5 13.7 95 17.7
2004-11-24 14:01:30 51°15.489 2°46.411 100.5 13.6 97 16.2
2004-11-24 14:02:38 51°15.459 2°46.818 99 13.6 96 14.7
2004-11-24 14:03:38 51°15.44 2°47.178 98.3 13.7 94 13
2004-11-24 14:04:37 51°15.422 2°47.533 98.5 13.7 95 11.5
2004-11-24 14:05:36 51°15.4 2°47.884 98.7 13.6 95 10.7
2004-11-24 14:06:38 51°15.376 2°48.253 98.7 13.4 96 10.6
2004-11-24 14:07:37 51°15.362 2°48.608 97.2 13.7 94 12.4
2004-11-24 14:08:38 51°15.344 2°48.976 97.3 13.6 95 13.6
2004-11-24 14:09:52 51°15.324 2°49.418 96.3 13.6 94 13.5
2004-11-24 14:10:50 51°15.308 2°49.767 97.2 13.7 94 13.3
2004-11-24 14:12:00 51°15.293 2°50.191 97.7 13.7 94 13.4
2004-11-24 14:13:09 51°15.28 2°50.608 95 13.7 92 13.2
2004-11-24 14:14:16 51°15.272 2°51.013 94.8 13.6 91 13
2004-11-24 14:15:20 51°15.265 2°51.398 95.1 13.7 91 12.6
2004-11-24 14:16:34 51°15.234 2°51.836 105.9 13.6 105 12.4
2004-11-24 14:17:42 51°15.168 2°52.226 106.2 13.4 106 11.7
2004-11-24 14:18:42 51°15.113 2°52.571 106.5 13.3 105 11.2
2004-11-24 14:19:42 51°15.057 2°52.915 106.8 13.1 104 10.6
2004-11-24 14:20:42 51°15 2°53.257 106.8 13.3 105 10.1
2004-11-24 14:21:50 51°14.914 2°53.636 111.6 13.3 109 9.9
2004-11-24 14:23:02 51°14.806 2°54.026 122.2 13.5 117 9.7
2004-11-24 14:24:09 51°14.673 2°54.348 125.9 12.5 125 10.5
2004-11-24 14:25:09 51°14.565 2°54.614 125.3 11.9 124 10.3
2004-11-24 14:26:08 51°14.452 2°54.864 125.6 11.7 125 10.9
2004-11-24 14:27:15 51°14.341 2°55.121 129.7 7.9 128 10.9
2004-11-24 14:28:16 51°14.277 2°55.248 132.6 5.1 130 11
2004-11-24 14:29:20 51°14.218 2°55.331 145.8 4.3 143 11
2004-11-24 14:30:16 51°14.155 2°55.391 156.1 4.9 154 10.7
2004-11-24 14:31:24 51°14.065 2°55.459 157.4 5.6 156 10.4
2004-11-24 14:32:24 51°13.977 2°55.526 157.1 6 154 10.9
2004-11-24 14:33:24 51°13.885 2°55.593 158.3 6.1 156 10.7
2004-11-24 14:34:24 51°13.789 2°55.66 156.4 6.3 154 10.9
2004-11-24 14:35:25 51°13.717 2°55.765 127 5.5 124 13.5
2004-11-24 14:36:25 51°13.669 2°55.892 123.2 5.4 120 9.9
2004-11-24 14:37:25 51°13.635 2°55.994 113.4 3.6 111 8.4
2004-11-24 14:38:25 51°13.621 2°56.05 123.2 1.7 114 8.2
2004-11-24 14:39:24 51°13.617 2°56.061 123.2 0.1 77 8.2